sensor_id;sensor_type;location;lat;lon;timestamp;P1;durP1;ratioP1;P2;durP2;ratioP2
54430;SDS011;40342;52.998;5.862;2023-07-20T00:01:13;1.10;;;1.00;;
54430;SDS011;40342;52.998;5.862;2023-07-20T00:03:39;2.75;;;1.15;;
54430;SDS011;40342;52.998;5.862;2023-07-20T00:06:04;1.58;;;1.27;;
54430;SDS011;40342;52.998;5.862;2023-07-20T00:08:30;1.40;;;1.30;;
54430;SDS011;40342;52.998;5.862;2023-07-20T00:10:56;1.30;;;1.20;;
54430;SDS011;40342;52.998;5.862;2023-07-20T00:13:21;2.08;;;1.27;;
54430;SDS011;40342;52.998;5.862;2023-07-20T00:15:47;3.08;;;1.20;;
54430;SDS011;40342;52.998;5.862;2023-07-20T00:18:12;3.00;;;1.00;;
54430;SDS011;40342;52.998;5.862;2023-07-20T00:20:38;10.45;;;1.05;;
54430;SDS011;40342;52.998;5.862;2023-07-20T00:23:04;0.73;;;0.73;;
54430;SDS011;40342;52.998;5.862;2023-07-20T00:25:30;2.25;;;0.95;;
54430;SDS011;40342;52.998;5.862;2023-07-20T00:27:55;1.05;;;1.05;;
54430;SDS011;40342;52.998;5.862;2023-07-20T00:30:21;1.00;;;1.00;;
54430;SDS011;40342;52.998;5.862;2023-07-20T00:32:47;1.02;;;1.02;;
54430;SDS011;40342;52.998;5.862;2023-07-20T00:35:12;0.90;;;0.90;;
54430;SDS011;40342;52.998;5.862;2023-07-20T00:37:39;1.10;;;0.90;;
54430;SDS011;40342;52.998;5.862;2023-07-20T00:40:05;0.50;;;0.50;;
54430;SDS011;40342;52.998;5.862;2023-07-20T00:42:32;0.90;;;0.90;;
54430;SDS011;40342;52.998;5.862;2023-07-20T00:44:58;0.80;;;0.80;;
54430;SDS011;40342;52.998;5.862;2023-07-20T00:47:24;0.90;;;0.90;;
54430;SDS011;40342;52.998;5.862;2023-07-20T00:49:50;4.63;;;0.75;;
54430;SDS011;40342;52.998;5.862;2023-07-20T00:52:16;6.57;;;0.80;;
54430;SDS011;40342;52.998;5.862;2023-07-20T00:54:45;13.75;;;1.00;;
54430;SDS011;40342;52.998;5.862;2023-07-20T00:57:12;23.02;;;1.17;;
54430;SDS011;40342;52.998;5.862;2023-07-20T00:59:39;17.13;;;0.82;;
54430;SDS011;40342;52.998;5.862;2023-07-20T01:02:05;6.20;;;0.60;;
54430;SDS011;40342;52.998;5.862;2023-07-20T01:04:30;0.50;;;0.50;;
54430;SDS011;40342;52.998;5.862;2023-07-20T01:07:07;0.52;;;0.50;;
54430;SDS011;40342;52.998;5.862;2023-07-20T01:12:40;0.50;;;0.40;;
54430;SDS011;40342;52.998;5.862;2023-07-20T01:15:08;0.50;;;0.50;;
54430;SDS011;40342;52.998;5.862;2023-07-20T01:17:34;0.30;;;0.30;;
54430;SDS011;40342;52.998;5.862;2023-07-20T01:20:00;0.40;;;0.40;;
54430;SDS011;40342;52.998;5.862;2023-07-20T01:22:47;0.40;;;0.40;;
54430;SDS011;40342;52.998;5.862;2023-07-20T01:26:04;0.60;;;0.60;;
54430;SDS011;40342;52.998;5.862;2023-07-20T01:31:42;0.40;;;0.40;;
54430;SDS011;40342;52.998;5.862;2023-07-20T01:34:09;0.43;;;0.43;;
54430;SDS011;40342;52.998;5.862;2023-07-20T01:36:37;0.20;;;0.20;;
54430;SDS011;40342;52.998;5.862;2023-07-20T01:39:04;0.40;;;0.22;;
54430;SDS011;40342;52.998;5.862;2023-07-20T01:41:31;3.70;;;0.35;;
54430;SDS011;40342;52.998;5.862;2023-07-20T01:43:58;0.20;;;0.20;;
54430;SDS011;40342;52.998;5.862;2023-07-20T01:46:27;1.25;;;0.30;;
54430;SDS011;40342;52.998;5.862;2023-07-20T01:48:53;3.20;;;0.50;;
54430;SDS011;40342;52.998;5.862;2023-07-20T01:51:19;0.30;;;0.30;;
54430;SDS011;40342;52.998;5.862;2023-07-20T01:53:44;0.50;;;0.50;;
54430;SDS011;40342;52.998;5.862;2023-07-20T01:56:10;0.50;;;0.50;;
54430;SDS011;40342;52.998;5.862;2023-07-20T01:58:37;0.30;;;0.30;;
54430;SDS011;40342;52.998;5.862;2023-07-20T02:01:03;0.22;;;0.20;;
54430;SDS011;40342;52.998;5.862;2023-07-20T02:03:29;0.85;;;0.40;;
54430;SDS011;40342;52.998;5.862;2023-07-20T02:05:54;0.50;;;0.47;;
54430;SDS011;40342;52.998;5.862;2023-07-20T02:08:21;0.63;;;0.50;;
54430;SDS011;40342;52.998;5.862;2023-07-20T02:10:47;0.60;;;0.60;;
54430;SDS011;40342;52.998;5.862;2023-07-20T02:13:13;1.05;;;0.70;;
54430;SDS011;40342;52.998;5.862;2023-07-20T02:15:39;1.10;;;1.00;;
54430;SDS011;40342;52.998;5.862;2023-07-20T02:18:06;0.70;;;0.70;;
54430;SDS011;40342;52.998;5.862;2023-07-20T02:20:31;0.60;;;0.60;;
54430;SDS011;40342;52.998;5.862;2023-07-20T02:22:57;0.60;;;0.60;;
54430;SDS011;40342;52.998;5.862;2023-07-20T02:25:23;0.40;;;0.35;;
54430;SDS011;40342;52.998;5.862;2023-07-20T02:27:48;0.60;;;0.57;;
54430;SDS011;40342;52.998;5.862;2023-07-20T02:30:14;0.40;;;0.40;;
54430;SDS011;40342;52.998;5.862;2023-07-20T02:32:41;2.38;;;0.50;;
54430;SDS011;40342;52.998;5.862;2023-07-20T02:35:10;0.55;;;0.55;;
54430;SDS011;40342;52.998;5.862;2023-07-20T02:37:36;0.60;;;0.60;;
54430;SDS011;40342;52.998;5.862;2023-07-20T02:40:02;1.25;;;0.50;;
54430;SDS011;40342;52.998;5.862;2023-07-20T02:42:29;2.20;;;0.80;;
54430;SDS011;40342;52.998;5.862;2023-07-20T02:44:55;0.73;;;0.52;;
54430;SDS011;40342;52.998;5.862;2023-07-20T02:47:21;0.80;;;0.80;;
54430;SDS011;40342;52.998;5.862;2023-07-20T02:49:46;0.98;;;0.80;;
54430;SDS011;40342;52.998;5.862;2023-07-20T02:52:12;0.80;;;0.80;;
54430;SDS011;40342;52.998;5.862;2023-07-20T02:54:37;0.90;;;0.80;;
54430;SDS011;40342;52.998;5.862;2023-07-20T02:57:03;1.80;;;0.80;;
54430;SDS011;40342;52.998;5.862;2023-07-20T02:59:29;2.00;;;0.77;;
54430;SDS011;40342;52.998;5.862;2023-07-20T03:01:54;0.68;;;0.68;;
54430;SDS011;40342;52.998;5.862;2023-07-20T03:04:20;0.75;;;0.70;;
54430;SDS011;40342;52.998;5.862;2023-07-20T03:06:46;0.90;;;0.90;;
54430;SDS011;40342;52.998;5.862;2023-07-20T03:09:12;1.05;;;1.05;;
54430;SDS011;40342;52.998;5.862;2023-07-20T03:11:37;0.90;;;0.90;;
54430;SDS011;40342;52.998;5.862;2023-07-20T03:14:03;1.05;;;0.82;;
54430;SDS011;40342;52.998;5.862;2023-07-20T03:16:29;0.80;;;0.80;;
54430;SDS011;40342;52.998;5.862;2023-07-20T03:18:57;1.40;;;1.30;;
54430;SDS011;40342;52.998;5.862;2023-07-20T03:21:23;0.80;;;0.80;;
54430;SDS011;40342;52.998;5.862;2023-07-20T03:23:49;0.88;;;0.88;;
54430;SDS011;40342;52.998;5.862;2023-07-20T03:26:14;0.40;;;0.40;;
54430;SDS011;40342;52.998;5.862;2023-07-20T03:28:40;0.43;;;0.43;;
54430;SDS011;40342;52.998;5.862;2023-07-20T03:31:06;0.35;;;0.35;;
54430;SDS011;40342;52.998;5.862;2023-07-20T03:33:31;0.40;;;0.40;;
54430;SDS011;40342;52.998;5.862;2023-07-20T03:35:57;0.50;;;0.50;;
54430;SDS011;40342;52.998;5.862;2023-07-20T03:38:23;0.77;;;0.77;;
54430;SDS011;40342;52.998;5.862;2023-07-20T03:40:53;0.77;;;0.77;;
54430;SDS011;40342;52.998;5.862;2023-07-20T03:43:20;0.80;;;0.80;;
54430;SDS011;40342;52.998;5.862;2023-07-20T03:45:46;0.90;;;0.90;;
54430;SDS011;40342;52.998;5.862;2023-07-20T03:48:12;1.40;;;1.30;;
54430;SDS011;40342;52.998;5.862;2023-07-20T03:50:43;2.47;;;1.17;;
54430;SDS011;40342;52.998;5.862;2023-07-20T03:53:10;1.25;;;1.15;;
54430;SDS011;40342;52.998;5.862;2023-07-20T03:55:35;0.85;;;0.85;;
54430;SDS011;40342;52.998;5.862;2023-07-20T03:58:01;0.40;;;0.40;;
54430;SDS011;40342;52.998;5.862;2023-07-20T04:00:26;0.90;;;0.90;;
54430;SDS011;40342;52.998;5.862;2023-07-20T04:02:52;0.77;;;0.77;;
54430;SDS011;40342;52.998;5.862;2023-07-20T04:05:18;0.75;;;0.75;;
54430;SDS011;40342;52.998;5.862;2023-07-20T04:07:44;0.85;;;0.85;;
54430;SDS011;40342;52.998;5.862;2023-07-20T04:10:10;6.60;;;0.60;;
54430;SDS011;40342;52.998;5.862;2023-07-20T04:12:35;0.30;;;0.30;;
54430;SDS011;40342;52.998;5.862;2023-07-20T04:15:01;0.95;;;0.30;;
54430;SDS011;40342;52.998;5.862;2023-07-20T04:17:28;0.60;;;0.60;;
54430;SDS011;40342;52.998;5.862;2023-07-20T04:19:54;0.68;;;0.63;;
54430;SDS011;40342;52.998;5.862;2023-07-20T04:22:19;1.35;;;0.55;;
54430;SDS011;40342;52.998;5.862;2023-07-20T04:24:45;0.30;;;0.30;;
54430;SDS011;40342;52.998;5.862;2023-07-20T04:27:11;0.50;;;0.50;;
54430;SDS011;40342;52.998;5.862;2023-07-20T04:29:36;0.40;;;0.40;;
54430;SDS011;40342;52.998;5.862;2023-07-20T04:32:02;0.60;;;0.60;;
54430;SDS011;40342;52.998;5.862;2023-07-20T04:34:28;0.47;;;0.47;;
54430;SDS011;40342;52.998;5.862;2023-07-20T04:36:53;0.98;;;0.52;;
54430;SDS011;40342;52.998;5.862;2023-07-20T04:39:19;1.15;;;0.57;;
54430;SDS011;40342;52.998;5.862;2023-07-20T04:41:44;2.78;;;0.55;;
54430;SDS011;40342;52.998;5.862;2023-07-20T04:44:10;0.95;;;0.52;;
54430;SDS011;40342;52.998;5.862;2023-07-20T04:46:35;1.17;;;1.10;;
54430;SDS011;40342;52.998;5.862;2023-07-20T04:49:01;1.00;;;1.00;;
54430;SDS011;40342;52.998;5.862;2023-07-20T04:51:27;3.92;;;1.05;;
54430;SDS011;40342;52.998;5.862;2023-07-20T04:53:55;1.52;;;1.15;;
54430;SDS011;40342;52.998;5.862;2023-07-20T04:56:21;1.58;;;1.10;;
54430;SDS011;40342;52.998;5.862;2023-07-20T04:58:48;1.20;;;1.20;;
54430;SDS011;40342;52.998;5.862;2023-07-20T05:01:14;1.58;;;0.98;;
54430;SDS011;40342;52.998;5.862;2023-07-20T05:03:39;1.38;;;1.35;;
54430;SDS011;40342;52.998;5.862;2023-07-20T05:06:05;1.58;;;1.25;;
54430;SDS011;40342;52.998;5.862;2023-07-20T05:08:30;0.98;;;0.90;;
54430;SDS011;40342;52.998;5.862;2023-07-20T05:10:56;1.83;;;1.30;;
54430;SDS011;40342;52.998;5.862;2023-07-20T05:13:21;1.27;;;1.10;;
54430;SDS011;40342;52.998;5.862;2023-07-20T05:15:50;1.10;;;1.10;;
54430;SDS011;40342;52.998;5.862;2023-07-20T05:18:19;1.83;;;1.25;;
54430;SDS011;40342;52.998;5.862;2023-07-20T05:20:48;2.70;;;1.40;;
54430;SDS011;40342;52.998;5.862;2023-07-20T05:23:17;2.72;;;1.30;;
54430;SDS011;40342;52.998;5.862;2023-07-20T05:25:43;1.67;;;1.58;;
54430;SDS011;40342;52.998;5.862;2023-07-20T05:28:09;1.95;;;1.27;;
54430;SDS011;40342;52.998;5.862;2023-07-20T05:30:34;1.40;;;1.30;;
54430;SDS011;40342;52.998;5.862;2023-07-20T05:33:00;1.55;;;1.40;;
54430;SDS011;40342;52.998;5.862;2023-07-20T05:35:26;2.50;;;1.38;;
54430;SDS011;40342;52.998;5.862;2023-07-20T05:37:52;1.90;;;1.63;;
54430;SDS011;40342;52.998;5.862;2023-07-20T05:40:17;1.98;;;1.52;;
54430;SDS011;40342;52.998;5.862;2023-07-20T05:42:44;3.10;;;1.60;;
54430;SDS011;40342;52.998;5.862;2023-07-20T05:45:11;2.20;;;1.48;;
54430;SDS011;40342;52.998;5.862;2023-07-20T05:47:37;2.15;;;1.50;;
54430;SDS011;40342;52.998;5.862;2023-07-20T05:50:03;1.60;;;1.50;;
54430;SDS011;40342;52.998;5.862;2023-07-20T05:52:29;3.63;;;1.80;;
54430;SDS011;40342;52.998;5.862;2023-07-20T05:54:54;3.25;;;1.60;;
54430;SDS011;40342;52.998;5.862;2023-07-20T05:57:20;2.92;;;1.55;;
54430;SDS011;40342;52.998;5.862;2023-07-20T05:59:46;4.10;;;1.35;;
54430;SDS011;40342;52.998;5.862;2023-07-20T06:02:11;3.10;;;1.48;;
54430;SDS011;40342;52.998;5.862;2023-07-20T06:04:38;1.83;;;1.70;;
54430;SDS011;40342;52.998;5.862;2023-07-20T06:07:04;2.92;;;1.60;;
54430;SDS011;40342;52.998;5.862;2023-07-20T06:09:30;2.17;;;0.80;;
54430;SDS011;40342;52.998;5.862;2023-07-20T06:11:56;3.20;;;0.88;;
54430;SDS011;40342;52.998;5.862;2023-07-20T06:14:21;3.40;;;0.98;;
54430;SDS011;40342;52.998;5.862;2023-07-20T06:16:47;3.65;;;0.95;;
54430;SDS011;40342;52.998;5.862;2023-07-20T06:19:13;3.38;;;0.95;;
54430;SDS011;40342;52.998;5.862;2023-07-20T06:21:39;1.58;;;0.90;;
54430;SDS011;40342;52.998;5.862;2023-07-20T06:24:04;1.63;;;0.90;;
54430;SDS011;40342;52.998;5.862;2023-07-20T06:26:30;1.38;;;1.00;;
54430;SDS011;40342;52.998;5.862;2023-07-20T06:28:57;3.35;;;1.10;;
54430;SDS011;40342;52.998;5.862;2023-07-20T06:31:23;1.88;;;0.77;;
54430;SDS011;40342;52.998;5.862;2023-07-20T06:33:48;4.03;;;1.20;;
54430;SDS011;40342;52.998;5.862;2023-07-20T06:36:16;2.58;;;1.27;;
54430;SDS011;40342;52.998;5.862;2023-07-20T06:38:42;2.35;;;0.85;;
54430;SDS011;40342;52.998;5.862;2023-07-20T06:41:08;1.08;;;0.80;;
54430;SDS011;40342;52.998;5.862;2023-07-20T06:43:33;2.13;;;1.02;;
54430;SDS011;40342;52.998;5.862;2023-07-20T06:46:00;2.78;;;0.80;;
54430;SDS011;40342;52.998;5.862;2023-07-20T06:48:25;1.95;;;0.93;;
54430;SDS011;40342;52.998;5.862;2023-07-20T06:50:51;1.80;;;0.82;;
54430;SDS011;40342;52.998;5.862;2023-07-20T06:53:16;0.73;;;0.55;;
54430;SDS011;40342;52.998;5.862;2023-07-20T06:55:42;1.73;;;0.75;;
54430;SDS011;40342;52.998;5.862;2023-07-20T06:58:09;2.42;;;0.60;;
54430;SDS011;40342;52.998;5.862;2023-07-20T07:00:35;2.33;;;0.68;;
54430;SDS011;40342;52.998;5.862;2023-07-20T07:03:01;1.50;;;0.60;;
54430;SDS011;40342;52.998;5.862;2023-07-20T07:05:27;0.98;;;0.73;;
54430;SDS011;40342;52.998;5.862;2023-07-20T07:07:53;1.33;;;0.50;;
54430;SDS011;40342;52.998;5.862;2023-07-20T07:10:18;2.67;;;0.73;;
54430;SDS011;40342;52.998;5.862;2023-07-20T07:12:44;1.23;;;0.68;;
54430;SDS011;40342;52.998;5.862;2023-07-20T07:15:09;1.77;;;0.52;;
54430;SDS011;40342;52.998;5.862;2023-07-20T07:17:38;0.93;;;0.68;;
54430;SDS011;40342;52.998;5.862;2023-07-20T07:20:04;0.43;;;0.40;;
54430;SDS011;40342;52.998;5.862;2023-07-20T07:22:31;1.67;;;0.68;;
54430;SDS011;40342;52.998;5.862;2023-07-20T07:24:56;2.50;;;0.80;;
54430;SDS011;40342;52.998;5.862;2023-07-20T07:27:22;1.17;;;0.50;;
54430;SDS011;40342;52.998;5.862;2023-07-20T07:29:47;1.27;;;0.60;;
54430;SDS011;40342;52.998;5.862;2023-07-20T07:32:14;1.50;;;0.73;;
54430;SDS011;40342;52.998;5.862;2023-07-20T07:34:40;3.85;;;0.70;;
54430;SDS011;40342;52.998;5.862;2023-07-20T07:37:06;1.63;;;0.35;;
54430;SDS011;40342;52.998;5.862;2023-07-20T07:39:31;0.80;;;0.43;;
54430;SDS011;40342;52.998;5.862;2023-07-20T07:41:57;1.05;;;0.70;;
54430;SDS011;40342;52.998;5.862;2023-07-20T07:44:23;0.82;;;0.52;;
54430;SDS011;40342;52.998;5.862;2023-07-20T07:46:49;0.73;;;0.60;;
54430;SDS011;40342;52.998;5.862;2023-07-20T07:49:15;3.33;;;0.85;;
54430;SDS011;40342;52.998;5.862;2023-07-20T07:51:41;1.00;;;0.65;;
54430;SDS011;40342;52.998;5.862;2023-07-20T07:54:07;4.88;;;0.90;;
54430;SDS011;40342;52.998;5.862;2023-07-20T07:56:32;1.92;;;0.52;;
54430;SDS011;40342;52.998;5.862;2023-07-20T07:58:58;0.65;;;0.47;;
54430;SDS011;40342;52.998;5.862;2023-07-20T08:01:23;1.30;;;0.70;;
54430;SDS011;40342;52.998;5.862;2023-07-20T08:03:49;3.35;;;0.93;;
54430;SDS011;40342;52.998;5.862;2023-07-20T08:06:14;1.35;;;0.90;;
54430;SDS011;40342;52.998;5.862;2023-07-20T08:08:40;1.95;;;0.80;;
54430;SDS011;40342;52.998;5.862;2023-07-20T08:11:07;1.75;;;0.65;;
54430;SDS011;40342;52.998;5.862;2023-07-20T08:13:33;2.40;;;0.90;;
54430;SDS011;40342;52.998;5.862;2023-07-20T08:15:58;1.25;;;0.75;;
54430;SDS011;40342;52.998;5.862;2023-07-20T08:18:24;2.30;;;0.80;;
54430;SDS011;40342;52.998;5.862;2023-07-20T08:20:50;1.67;;;0.82;;
54430;SDS011;40342;52.998;5.862;2023-07-20T08:23:15;1.73;;;0.80;;
54430;SDS011;40342;52.998;5.862;2023-07-20T08:25:41;1.75;;;0.90;;
54430;SDS011;40342;52.998;5.862;2023-07-20T08:28:10;3.90;;;0.80;;
54430;SDS011;40342;52.998;5.862;2023-07-20T08:30:44;1.15;;;0.90;;
54430;SDS011;40342;52.998;5.862;2023-07-20T08:33:12;1.05;;;1.02;;
54430;SDS011;40342;52.998;5.862;2023-07-20T08:35:39;1.38;;;0.90;;
54430;SDS011;40342;52.998;5.862;2023-07-20T08:38:05;2.10;;;1.08;;
54430;SDS011;40342;52.998;5.862;2023-07-20T08:40:32;1.92;;;0.98;;
54430;SDS011;40342;52.998;5.862;2023-07-20T08:42:59;1.98;;;1.20;;
54430;SDS011;40342;52.998;5.862;2023-07-20T08:45:26;2.25;;;1.13;;
54430;SDS011;40342;52.998;5.862;2023-07-20T08:47:54;2.30;;;1.65;;
54430;SDS011;40342;52.998;5.862;2023-07-20T08:50:23;3.80;;;1.50;;
54430;SDS011;40342;52.998;5.862;2023-07-20T08:52:50;1.73;;;1.27;;
54430;SDS011;40342;52.998;5.862;2023-07-20T08:55:18;1.23;;;1.15;;
54430;SDS011;40342;52.998;5.862;2023-07-20T08:57:47;2.03;;;1.33;;
54430;SDS011;40342;52.998;5.862;2023-07-20T09:00:16;2.33;;;1.40;;
54430;SDS011;40342;52.998;5.862;2023-07-20T09:02:45;1.48;;;1.17;;
54430;SDS011;40342;52.998;5.862;2023-07-20T09:05:10;1.83;;;0.80;;
54430;SDS011;40342;52.998;5.862;2023-07-20T09:07:39;1.00;;;1.00;;
54430;SDS011;40342;52.998;5.862;2023-07-20T09:10:05;2.90;;;1.13;;
54430;SDS011;40342;52.998;5.862;2023-07-20T09:12:34;1.67;;;1.08;;
54430;SDS011;40342;52.998;5.862;2023-07-20T09:15:01;2.13;;;1.40;;
54430;SDS011;40342;52.998;5.862;2023-07-20T09:17:27;1.75;;;0.93;;
54430;SDS011;40342;52.998;5.862;2023-07-20T09:19:52;2.72;;;0.95;;
54430;SDS011;40342;52.998;5.862;2023-07-20T09:22:18;1.60;;;1.15;;
54430;SDS011;40342;52.998;5.862;2023-07-20T09:24:44;3.55;;;1.10;;
54430;SDS011;40342;52.998;5.862;2023-07-20T09:27:10;4.25;;;1.30;;
54430;SDS011;40342;52.998;5.862;2023-07-20T09:29:47;2.53;;;0.90;;
54430;SDS011;40342;52.998;5.862;2023-07-20T09:32:19;1.25;;;1.10;;
54430;SDS011;40342;52.998;5.862;2023-07-20T09:34:46;3.38;;;1.10;;
54430;SDS011;40342;52.998;5.862;2023-07-20T09:37:12;2.97;;;1.23;;
54430;SDS011;40342;52.998;5.862;2023-07-20T09:39:44;1.92;;;1.17;;
54430;SDS011;40342;52.998;5.862;2023-07-20T09:44:38;1.58;;;1.13;;
54430;SDS011;40342;52.998;5.862;2023-07-20T09:47:04;3.95;;;1.10;;
54430;SDS011;40342;52.998;5.862;2023-07-20T09:49:30;0.85;;;0.85;;
54430;SDS011;40342;52.998;5.862;2023-07-20T09:51:57;2.00;;;1.25;;
54430;SDS011;40342;52.998;5.862;2023-07-20T09:54:25;1.92;;;0.80;;
54430;SDS011;40342;52.998;5.862;2023-07-20T09:56:52;1.00;;;0.80;;
54430;SDS011;40342;52.998;5.862;2023-07-20T09:59:19;0.80;;;0.68;;
54430;SDS011;40342;52.998;5.862;2023-07-20T10:01:44;2.78;;;0.90;;
54430;SDS011;40342;52.998;5.862;2023-07-20T10:04:12;1.25;;;0.80;;
54430;SDS011;40342;52.998;5.862;2023-07-20T10:06:41;1.00;;;0.70;;
54430;SDS011;40342;52.998;5.862;2023-07-20T10:09:08;2.42;;;0.85;;
54430;SDS011;40342;52.998;5.862;2023-07-20T10:11:37;0.70;;;0.70;;
54430;SDS011;40342;52.998;5.862;2023-07-20T10:14:08;1.52;;;1.10;;
54430;SDS011;40342;52.998;5.862;2023-07-20T10:16:36;2.10;;;1.00;;
54430;SDS011;40342;52.998;5.862;2023-07-20T10:19:34;0.80;;;0.80;;
54430;SDS011;40342;52.998;5.862;2023-07-20T10:22:12;1.77;;;1.00;;
54430;SDS011;40342;52.998;5.862;2023-07-20T10:24:41;0.88;;;0.85;;
54430;SDS011;40342;52.998;5.862;2023-07-20T10:27:09;1.45;;;0.90;;
54430;SDS011;40342;52.998;5.862;2023-07-20T10:29:35;2.42;;;0.98;;
54430;SDS011;40342;52.998;5.862;2023-07-20T10:32:02;2.00;;;0.90;;
54430;SDS011;40342;52.998;5.862;2023-07-20T10:34:28;1.80;;;0.90;;
54430;SDS011;40342;52.998;5.862;2023-07-20T10:36:53;1.08;;;0.90;;
54430;SDS011;40342;52.998;5.862;2023-07-20T10:39:25;1.65;;;0.85;;
54430;SDS011;40342;52.998;5.862;2023-07-20T10:42:31;1.35;;;1.00;;
54430;SDS011;40342;52.998;5.862;2023-07-20T10:44:50;0.90;;;0.88;;
54430;SDS011;40342;52.998;5.862;2023-07-20T10:47:16;2.13;;;1.05;;
54430;SDS011;40342;52.998;5.862;2023-07-20T10:49:57;3.05;;;0.98;;
54430;SDS011;40342;52.998;5.862;2023-07-20T10:52:25;2.33;;;0.90;;
54430;SDS011;40342;52.998;5.862;2023-07-20T10:54:50;3.75;;;0.90;;
54430;SDS011;40342;52.998;5.862;2023-07-20T10:57:37;2.85;;;0.77;;
54430;SDS011;40342;52.998;5.862;2023-07-20T11:00:08;1.33;;;0.82;;
54430;SDS011;40342;52.998;5.862;2023-07-20T11:02:45;2.45;;;0.70;;
54430;SDS011;40342;52.998;5.862;2023-07-20T11:07:57;2.90;;;0.75;;
54430;SDS011;40342;52.998;5.862;2023-07-20T11:10:23;0.95;;;0.70;;
54430;SDS011;40342;52.998;5.862;2023-07-20T11:13:15;1.23;;;0.90;;
54430;SDS011;40342;52.998;5.862;2023-07-20T11:15:47;0.82;;;0.70;;
54430;SDS011;40342;52.998;5.862;2023-07-20T11:18:25;0.70;;;0.70;;
54430;SDS011;40342;52.998;5.862;2023-07-20T11:20:51;1.67;;;0.90;;
54430;SDS011;40342;52.998;5.862;2023-07-20T11:23:17;0.90;;;0.60;;
54430;SDS011;40342;52.998;5.862;2023-07-20T11:25:44;1.02;;;0.90;;
54430;SDS011;40342;52.998;5.862;2023-07-20T11:28:11;3.78;;;1.00;;
54430;SDS011;40342;52.998;5.862;2023-07-20T11:30:39;1.02;;;0.80;;
54430;SDS011;40342;52.998;5.862;2023-07-20T11:33:05;0.80;;;0.63;;
54430;SDS011;40342;52.998;5.862;2023-07-20T11:35:41;1.98;;;1.00;;
54430;SDS011;40342;52.998;5.862;2023-07-20T11:38:08;1.70;;;0.82;;
54430;SDS011;40342;52.998;5.862;2023-07-20T11:40:33;1.17;;;1.00;;
54430;SDS011;40342;52.998;5.862;2023-07-20T11:42:59;1.25;;;0.90;;
54430;SDS011;40342;52.998;5.862;2023-07-20T11:45:25;1.15;;;0.88;;
54430;SDS011;40342;52.998;5.862;2023-07-20T11:47:52;1.67;;;0.70;;
54430;SDS011;40342;52.998;5.862;2023-07-20T11:50:18;1.58;;;0.80;;
54430;SDS011;40342;52.998;5.862;2023-07-20T11:52:43;1.13;;;0.80;;
54430;SDS011;40342;52.998;5.862;2023-07-20T11:55:09;0.75;;;0.75;;
54430;SDS011;40342;52.998;5.862;2023-07-20T11:57:36;0.95;;;0.88;;
54430;SDS011;40342;52.998;5.862;2023-07-20T12:00:03;0.85;;;0.80;;
54430;SDS011;40342;52.998;5.862;2023-07-20T12:02:34;0.50;;;0.50;;
54430;SDS011;40342;52.998;5.862;2023-07-20T12:05:00;1.95;;;0.85;;
54430;SDS011;40342;52.998;5.862;2023-07-20T12:07:27;3.35;;;1.20;;
54430;SDS011;40342;52.998;5.862;2023-07-20T12:10:07;1.13;;;1.00;;
54430;SDS011;40342;52.998;5.862;2023-07-20T12:12:40;1.58;;;1.00;;
54430;SDS011;40342;52.998;5.862;2023-07-20T12:17:41;1.00;;;0.80;;
54430;SDS011;40342;52.998;5.862;2023-07-20T12:20:08;1.10;;;1.00;;
54430;SDS011;40342;52.998;5.862;2023-07-20T12:22:40;3.83;;;0.70;;
54430;SDS011;40342;52.998;5.862;2023-07-20T12:25:08;0.60;;;0.60;;
54430;SDS011;40342;52.998;5.862;2023-07-20T12:27:37;1.48;;;0.80;;
54430;SDS011;40342;52.998;5.862;2023-07-20T12:30:04;0.90;;;0.85;;
54430;SDS011;40342;52.998;5.862;2023-07-20T12:32:30;0.52;;;0.52;;
54430;SDS011;40342;52.998;5.862;2023-07-20T12:34:56;1.48;;;0.90;;
54430;SDS011;40342;52.998;5.862;2023-07-20T12:37:22;2.75;;;1.02;;
54430;SDS011;40342;52.998;5.862;2023-07-20T12:39:47;1.67;;;0.80;;
54430;SDS011;40342;52.998;5.862;2023-07-20T12:42:13;1.08;;;0.70;;
54430;SDS011;40342;52.998;5.862;2023-07-20T12:44:40;1.02;;;0.65;;
54430;SDS011;40342;52.998;5.862;2023-07-20T12:47:05;1.00;;;0.60;;
54430;SDS011;40342;52.998;5.862;2023-07-20T12:49:31;0.75;;;0.60;;
54430;SDS011;40342;52.998;5.862;2023-07-20T12:51:57;0.60;;;0.60;;
54430;SDS011;40342;52.998;5.862;2023-07-20T12:54:22;1.60;;;0.90;;
54430;SDS011;40342;52.998;5.862;2023-07-20T12:56:48;0.95;;;0.70;;
54430;SDS011;40342;52.998;5.862;2023-07-20T12:59:13;0.70;;;0.70;;
54430;SDS011;40342;52.998;5.862;2023-07-20T13:01:39;0.95;;;0.70;;
54430;SDS011;40342;52.998;5.862;2023-07-20T13:04:06;1.35;;;0.77;;
54430;SDS011;40342;52.998;5.862;2023-07-20T13:06:34;2.25;;;0.70;;
54430;SDS011;40342;52.998;5.862;2023-07-20T13:09:00;1.55;;;0.98;;
54430;SDS011;40342;52.998;5.862;2023-07-20T13:11:25;2.33;;;0.88;;
54430;SDS011;40342;52.998;5.862;2023-07-20T13:13:51;1.55;;;0.90;;
54430;SDS011;40342;52.998;5.862;2023-07-20T13:16:17;1.45;;;0.77;;
54430;SDS011;40342;52.998;5.862;2023-07-20T13:18:42;0.70;;;0.70;;
54430;SDS011;40342;52.998;5.862;2023-07-20T13:21:08;1.15;;;0.80;;
54430;SDS011;40342;52.998;5.862;2023-07-20T13:23:36;3.40;;;0.80;;
54430;SDS011;40342;52.998;5.862;2023-07-20T13:26:02;0.75;;;0.65;;
54430;SDS011;40342;52.998;5.862;2023-07-20T13:28:29;1.15;;;0.70;;
54430;SDS011;40342;52.998;5.862;2023-07-20T13:30:55;1.55;;;1.08;;
54430;SDS011;40342;52.998;5.862;2023-07-20T13:33:20;1.85;;;0.70;;
54430;SDS011;40342;52.998;5.862;2023-07-20T13:35:46;1.77;;;0.98;;
54430;SDS011;40342;52.998;5.862;2023-07-20T13:38:12;2.25;;;0.73;;
54430;SDS011;40342;52.998;5.862;2023-07-20T13:40:37;2.30;;;1.27;;
54430;SDS011;40342;52.998;5.862;2023-07-20T13:43:03;1.02;;;0.85;;
54430;SDS011;40342;52.998;5.862;2023-07-20T13:45:29;1.13;;;0.80;;
54430;SDS011;40342;52.998;5.862;2023-07-20T13:47:54;1.20;;;0.90;;
54430;SDS011;40342;52.998;5.862;2023-07-20T13:50:20;1.27;;;0.80;;
54430;SDS011;40342;52.998;5.862;2023-07-20T13:52:46;0.93;;;0.77;;
54430;SDS011;40342;52.998;5.862;2023-07-20T13:55:11;0.98;;;0.80;;
54430;SDS011;40342;52.998;5.862;2023-07-20T13:57:37;1.55;;;0.80;;
54430;SDS011;40342;52.998;5.862;2023-07-20T14:00:04;1.65;;;0.90;;
54430;SDS011;40342;52.998;5.862;2023-07-20T14:02:30;1.30;;;0.75;;
54430;SDS011;40342;52.998;5.862;2023-07-20T14:04:55;1.08;;;0.95;;
54430;SDS011;40342;52.998;5.862;2023-07-20T14:07:22;1.60;;;0.90;;
54430;SDS011;40342;52.998;5.862;2023-07-20T14:09:47;1.02;;;0.70;;
54430;SDS011;40342;52.998;5.862;2023-07-20T14:12:13;1.80;;;0.80;;
54430;SDS011;40342;52.998;5.862;2023-07-20T14:14:39;0.93;;;0.70;;
54430;SDS011;40342;52.998;5.862;2023-07-20T14:17:06;2.65;;;0.80;;
54430;SDS011;40342;52.998;5.862;2023-07-20T14:19:32;0.80;;;0.60;;
54430;SDS011;40342;52.998;5.862;2023-07-20T14:21:57;2.40;;;0.85;;
54430;SDS011;40342;52.998;5.862;2023-07-20T14:24:24;1.20;;;0.80;;
54430;SDS011;40342;52.998;5.862;2023-07-20T14:26:51;1.13;;;0.70;;
54430;SDS011;40342;52.998;5.862;2023-07-20T14:29:16;1.02;;;0.90;;
54430;SDS011;40342;52.998;5.862;2023-07-20T14:31:43;2.15;;;1.13;;
54430;SDS011;40342;52.998;5.862;2023-07-20T14:34:09;1.10;;;0.70;;
54430;SDS011;40342;52.998;5.862;2023-07-20T14:36:35;1.70;;;0.80;;
54430;SDS011;40342;52.998;5.862;2023-07-20T14:39:00;1.75;;;0.90;;
54430;SDS011;40342;52.998;5.862;2023-07-20T14:41:26;2.30;;;0.88;;
54430;SDS011;40342;52.998;5.862;2023-07-20T14:43:51;0.95;;;0.90;;
54430;SDS011;40342;52.998;5.862;2023-07-20T14:46:17;1.58;;;0.98;;
54430;SDS011;40342;52.998;5.862;2023-07-20T14:48:42;1.25;;;0.70;;
54430;SDS011;40342;52.998;5.862;2023-07-20T14:51:08;0.70;;;0.70;;
54430;SDS011;40342;52.998;5.862;2023-07-20T14:53:34;2.25;;;0.90;;
54430;SDS011;40342;52.998;5.862;2023-07-20T14:56:00;2.08;;;0.95;;
54430;SDS011;40342;52.998;5.862;2023-07-20T14:58:26;1.40;;;0.80;;
54430;SDS011;40342;52.998;5.862;2023-07-20T15:00:52;1.15;;;1.02;;